sensor_id;sensor_type;location;lat;lon;timestamp;P1;durP1;ratioP1;P2;durP2;ratioP2
4206;SDS011;2117;47.972;7.830;2023-12-20T00:02:16;1.60;;;0.97;;
4206;SDS011;2117;47.972;7.830;2023-12-20T00:04:42;1.73;;;0.93;;
4206;SDS011;2117;47.972;7.830;2023-12-20T00:07:08;1.97;;;0.70;;
4206;SDS011;2117;47.972;7.830;2023-12-20T00:09:33;2.60;;;1.03;;
4206;SDS011;2117;47.972;7.830;2023-12-20T00:11:59;2.17;;;0.90;;
4206;SDS011;2117;47.972;7.830;2023-12-20T00:14:24;1.80;;;1.10;;
4206;SDS011;2117;47.972;7.830;2023-12-20T00:16:50;1.33;;;0.83;;
4206;SDS011;2117;47.972;7.830;2023-12-20T00:19:15;2.20;;;0.80;;
4206;SDS011;2117;47.972;7.830;2023-12-20T00:21:41;1.97;;;0.80;;
4206;SDS011;2117;47.972;7.830;2023-12-20T00:24:07;2.20;;;0.90;;
4206;SDS011;2117;47.972;7.830;2023-12-20T00:26:33;2.10;;;1.30;;
4206;SDS011;2117;47.972;7.830;2023-12-20T00:28:59;1.90;;;1.27;;
4206;SDS011;2117;47.972;7.830;2023-12-20T00:31:24;1.37;;;0.90;;
4206;SDS011;2117;47.972;7.830;2023-12-20T00:33:50;1.87;;;1.17;;
4206;SDS011;2117;47.972;7.830;2023-12-20T00:36:15;5.33;;;1.10;;
4206;SDS011;2117;47.972;7.830;2023-12-20T00:38:41;4.63;;;1.10;;
4206;SDS011;2117;47.972;7.830;2023-12-20T00:41:07;2.27;;;1.00;;
4206;SDS011;2117;47.972;7.830;2023-12-20T00:43:32;1.90;;;0.90;;
4206;SDS011;2117;47.972;7.830;2023-12-20T00:45:58;1.83;;;1.37;;
4206;SDS011;2117;47.972;7.830;2023-12-20T00:48:25;1.63;;;1.17;;
4206;SDS011;2117;47.972;7.830;2023-12-20T00:50:52;2.40;;;1.00;;
4206;SDS011;2117;47.972;7.830;2023-12-20T00:53:17;1.90;;;1.30;;
4206;SDS011;2117;47.972;7.830;2023-12-20T00:55:43;1.63;;;0.93;;
4206;SDS011;2117;47.972;7.830;2023-12-20T00:58:09;2.90;;;1.27;;
4206;SDS011;2117;47.972;7.830;2023-12-20T01:00:35;1.60;;;1.23;;
4206;SDS011;2117;47.972;7.830;2023-12-20T01:03:01;1.53;;;1.10;;
4206;SDS011;2117;47.972;7.830;2023-12-20T01:05:26;1.97;;;1.23;;
4206;SDS011;2117;47.972;7.830;2023-12-20T01:07:52;2.33;;;1.27;;
4206;SDS011;2117;47.972;7.830;2023-12-20T01:10:17;1.60;;;1.03;;
4206;SDS011;2117;47.972;7.830;2023-12-20T01:12:43;2.53;;;1.57;;
4206;SDS011;2117;47.972;7.830;2023-12-20T01:15:09;1.70;;;1.10;;
4206;SDS011;2117;47.972;7.830;2023-12-20T01:17:35;2.63;;;1.27;;
4206;SDS011;2117;47.972;7.830;2023-12-20T01:20:01;2.50;;;1.10;;
4206;SDS011;2117;47.972;7.830;2023-12-20T01:22:26;1.27;;;1.00;;
4206;SDS011;2117;47.972;7.830;2023-12-20T01:24:52;3.40;;;1.40;;
4206;SDS011;2117;47.972;7.830;2023-12-20T01:27:17;2.17;;;1.50;;
4206;SDS011;2117;47.972;7.830;2023-12-20T01:29:43;2.70;;;1.27;;
4206;SDS011;2117;47.972;7.830;2023-12-20T01:32:09;2.47;;;1.60;;
4206;SDS011;2117;47.972;7.830;2023-12-20T01:34:35;1.73;;;1.07;;
4206;SDS011;2117;47.972;7.830;2023-12-20T01:37:01;1.23;;;0.80;;
4206;SDS011;2117;47.972;7.830;2023-12-20T01:39:27;2.93;;;1.23;;
4206;SDS011;2117;47.972;7.830;2023-12-20T01:41:53;1.30;;;0.70;;
4206;SDS011;2117;47.972;7.830;2023-12-20T01:44:18;8.40;;;1.23;;
4206;SDS011;2117;47.972;7.830;2023-12-20T01:46:44;2.07;;;1.20;;
4206;SDS011;2117;47.972;7.830;2023-12-20T01:49:10;1.40;;;0.80;;
4206;SDS011;2117;47.972;7.830;2023-12-20T01:51:36;1.70;;;1.10;;
4206;SDS011;2117;47.972;7.830;2023-12-20T01:54:02;1.90;;;1.07;;
4206;SDS011;2117;47.972;7.830;2023-12-20T01:56:29;1.50;;;0.90;;
4206;SDS011;2117;47.972;7.830;2023-12-20T01:58:56;2.07;;;1.17;;
4206;SDS011;2117;47.972;7.830;2023-12-20T02:01:23;1.70;;;0.90;;
4206;SDS011;2117;47.972;7.830;2023-12-20T02:03:49;1.43;;;0.90;;
4206;SDS011;2117;47.972;7.830;2023-12-20T02:06:15;1.60;;;1.07;;
4206;SDS011;2117;47.972;7.830;2023-12-20T02:08:42;1.30;;;0.60;;
4206;SDS011;2117;47.972;7.830;2023-12-20T02:11:08;2.23;;;0.80;;
4206;SDS011;2117;47.972;7.830;2023-12-20T02:13:33;1.20;;;0.70;;
4206;SDS011;2117;47.972;7.830;2023-12-20T02:15:59;1.50;;;0.80;;
4206;SDS011;2117;47.972;7.830;2023-12-20T02:18:25;1.23;;;0.67;;
4206;SDS011;2117;47.972;7.830;2023-12-20T02:20:51;1.50;;;0.70;;
4206;SDS011;2117;47.972;7.830;2023-12-20T02:23:16;1.10;;;0.60;;
4206;SDS011;2117;47.972;7.830;2023-12-20T02:25:42;1.60;;;0.80;;
4206;SDS011;2117;47.972;7.830;2023-12-20T02:28:07;1.53;;;0.90;;
4206;SDS011;2117;47.972;7.830;2023-12-20T02:30:33;1.27;;;0.70;;
4206;SDS011;2117;47.972;7.830;2023-12-20T02:32:59;1.40;;;0.90;;
4206;SDS011;2117;47.972;7.830;2023-12-20T02:35:27;1.53;;;0.77;;
4206;SDS011;2117;47.972;7.830;2023-12-20T02:37:52;1.60;;;1.03;;
4206;SDS011;2117;47.972;7.830;2023-12-20T02:40:18;1.83;;;1.20;;
4206;SDS011;2117;47.972;7.830;2023-12-20T02:42:43;1.80;;;1.00;;
4206;SDS011;2117;47.972;7.830;2023-12-20T02:45:09;2.70;;;0.97;;
4206;SDS011;2117;47.972;7.830;2023-12-20T02:47:34;1.67;;;1.10;;
4206;SDS011;2117;47.972;7.830;2023-12-20T02:50:00;1.80;;;1.20;;
4206;SDS011;2117;47.972;7.830;2023-12-20T02:52:25;1.63;;;1.10;;
4206;SDS011;2117;47.972;7.830;2023-12-20T02:54:52;2.03;;;1.23;;
4206;SDS011;2117;47.972;7.830;2023-12-20T02:57:18;1.60;;;1.20;;
4206;SDS011;2117;47.972;7.830;2023-12-20T02:59:43;2.23;;;1.20;;
4206;SDS011;2117;47.972;7.830;2023-12-20T03:02:09;1.40;;;1.00;;
4206;SDS011;2117;47.972;7.830;2023-12-20T03:04:34;2.00;;;1.10;;
4206;SDS011;2117;47.972;7.830;2023-12-20T03:07:00;1.40;;;1.00;;
4206;SDS011;2117;47.972;7.830;2023-12-20T03:09:26;3.63;;;1.40;;
4206;SDS011;2117;47.972;7.830;2023-12-20T03:11:51;1.50;;;1.13;;
4206;SDS011;2117;47.972;7.830;2023-12-20T03:14:17;1.27;;;0.90;;
4206;SDS011;2117;47.972;7.830;2023-12-20T03:16:46;1.50;;;1.00;;
4206;SDS011;2117;47.972;7.830;2023-12-20T03:19:14;1.43;;;1.00;;
4206;SDS011;2117;47.972;7.830;2023-12-20T03:21:41;1.97;;;1.73;;
4206;SDS011;2117;47.972;7.830;2023-12-20T03:24:06;1.60;;;1.00;;
4206;SDS011;2117;47.972;7.830;2023-12-20T03:26:32;2.10;;;1.20;;
4206;SDS011;2117;47.972;7.830;2023-12-20T03:28:57;1.67;;;1.10;;
4206;SDS011;2117;47.972;7.830;2023-12-20T03:31:23;1.33;;;0.90;;
4206;SDS011;2117;47.972;7.830;2023-12-20T03:33:49;1.90;;;1.37;;
4206;SDS011;2117;47.972;7.830;2023-12-20T03:36:15;1.87;;;1.10;;
4206;SDS011;2117;47.972;7.830;2023-12-20T03:38:41;1.90;;;1.10;;
4206;SDS011;2117;47.972;7.830;2023-12-20T03:41:07;1.60;;;1.00;;
4206;SDS011;2117;47.972;7.830;2023-12-20T03:43:32;1.30;;;0.80;;
4206;SDS011;2117;47.972;7.830;2023-12-20T03:45:58;1.40;;;0.90;;
4206;SDS011;2117;47.972;7.830;2023-12-20T03:48:24;1.73;;;1.30;;
4206;SDS011;2117;47.972;7.830;2023-12-20T03:50:50;1.40;;;0.90;;
4206;SDS011;2117;47.972;7.830;2023-12-20T03:53:16;1.90;;;1.03;;
4206;SDS011;2117;47.972;7.830;2023-12-20T03:55:41;1.50;;;1.00;;
4206;SDS011;2117;47.972;7.830;2023-12-20T03:58:07;1.40;;;0.90;;
4206;SDS011;2117;47.972;7.830;2023-12-20T04:00:32;1.93;;;1.10;;
4206;SDS011;2117;47.972;7.830;2023-12-20T04:02:58;1.60;;;0.83;;
4206;SDS011;2117;47.972;7.830;2023-12-20T04:05:23;2.00;;;1.00;;
4206;SDS011;2117;47.972;7.830;2023-12-20T04:07:49;1.70;;;1.00;;
4206;SDS011;2117;47.972;7.830;2023-12-20T04:10:15;1.27;;;0.80;;
4206;SDS011;2117;47.972;7.830;2023-12-20T04:12:41;2.27;;;1.10;;
4206;SDS011;2117;47.972;7.830;2023-12-20T04:15:06;4.60;;;1.00;;
4206;SDS011;2117;47.972;7.830;2023-12-20T04:17:34;1.30;;;0.90;;
4206;SDS011;2117;47.972;7.830;2023-12-20T04:20:00;1.83;;;0.80;;
4206;SDS011;2117;47.972;7.830;2023-12-20T04:22:26;1.73;;;0.80;;
4206;SDS011;2117;47.972;7.830;2023-12-20T04:24:52;1.10;;;0.70;;
4206;SDS011;2117;47.972;7.830;2023-12-20T04:27:17;1.60;;;0.80;;
4206;SDS011;2117;47.972;7.830;2023-12-20T04:29:43;1.23;;;0.70;;
4206;SDS011;2117;47.972;7.830;2023-12-20T04:32:08;1.10;;;0.70;;
4206;SDS011;2117;47.972;7.830;2023-12-20T04:34:34;1.20;;;0.70;;
4206;SDS011;2117;47.972;7.830;2023-12-20T04:36:59;1.10;;;0.70;;
4206;SDS011;2117;47.972;7.830;2023-12-20T04:39:26;1.00;;;0.60;;
4206;SDS011;2117;47.972;7.830;2023-12-20T04:41:52;1.43;;;0.80;;
4206;SDS011;2117;47.972;7.830;2023-12-20T04:44:18;1.10;;;0.60;;
4206;SDS011;2117;47.972;7.830;2023-12-20T04:46:43;1.00;;;0.53;;
4206;SDS011;2117;47.972;7.830;2023-12-20T04:49:09;1.53;;;0.87;;
4206;SDS011;2117;47.972;7.830;2023-12-20T04:51:34;1.30;;;0.70;;
4206;SDS011;2117;47.972;7.830;2023-12-20T04:54:00;1.00;;;0.70;;
4206;SDS011;2117;47.972;7.830;2023-12-20T04:56:27;1.10;;;0.60;;
4206;SDS011;2117;47.972;7.830;2023-12-20T04:58:52;1.23;;;0.80;;
4206;SDS011;2117;47.972;7.830;2023-12-20T05:01:18;1.47;;;1.00;;
4206;SDS011;2117;47.972;7.830;2023-12-20T05:03:44;1.27;;;0.80;;
4206;SDS011;2117;47.972;7.830;2023-12-20T05:06:10;1.13;;;0.73;;
4206;SDS011;2117;47.972;7.830;2023-12-20T05:08:38;1.87;;;0.90;;
4206;SDS011;2117;47.972;7.830;2023-12-20T05:11:04;2.30;;;0.97;;
4206;SDS011;2117;47.972;7.830;2023-12-20T05:13:30;1.80;;;1.30;;
4206;SDS011;2117;47.972;7.830;2023-12-20T05:15:55;1.50;;;1.00;;
4206;SDS011;2117;47.972;7.830;2023-12-20T05:18:21;1.30;;;0.80;;
4206;SDS011;2117;47.972;7.830;2023-12-20T05:20:47;1.63;;;1.13;;
4206;SDS011;2117;47.972;7.830;2023-12-20T05:23:14;2.00;;;0.87;;
4206;SDS011;2117;47.972;7.830;2023-12-20T05:25:39;1.23;;;0.70;;
4206;SDS011;2117;47.972;7.830;2023-12-20T05:28:05;1.70;;;1.30;;
4206;SDS011;2117;47.972;7.830;2023-12-20T05:30:31;2.20;;;1.20;;
4206;SDS011;2117;47.972;7.830;2023-12-20T05:32:56;1.70;;;1.40;;
4206;SDS011;2117;47.972;7.830;2023-12-20T05:35:22;1.50;;;1.07;;
4206;SDS011;2117;47.972;7.830;2023-12-20T05:37:48;1.53;;;1.13;;
4206;SDS011;2117;47.972;7.830;2023-12-20T05:40:14;3.77;;;1.13;;
4206;SDS011;2117;47.972;7.830;2023-12-20T05:42:39;1.37;;;0.80;;
4206;SDS011;2117;47.972;7.830;2023-12-20T05:45:05;1.43;;;0.90;;
4206;SDS011;2117;47.972;7.830;2023-12-20T05:47:31;1.50;;;0.70;;
4206;SDS011;2117;47.972;7.830;2023-12-20T05:49:56;1.50;;;1.03;;
4206;SDS011;2117;47.972;7.830;2023-12-20T05:52:22;1.50;;;0.80;;
4206;SDS011;2117;47.972;7.830;2023-12-20T05:54:47;1.53;;;1.20;;
4206;SDS011;2117;47.972;7.830;2023-12-20T05:57:13;1.90;;;1.00;;
4206;SDS011;2117;47.972;7.830;2023-12-20T05:59:39;1.83;;;0.90;;
4206;SDS011;2117;47.972;7.830;2023-12-20T06:02:04;2.17;;;1.23;;
4206;SDS011;2117;47.972;7.830;2023-12-20T06:04:30;1.50;;;1.00;;
4206;SDS011;2117;47.972;7.830;2023-12-20T06:06:56;1.10;;;0.70;;
4206;SDS011;2117;47.972;7.830;2023-12-20T06:09:21;4.63;;;1.43;;
4206;SDS011;2117;47.972;7.830;2023-12-20T06:11:47;1.27;;;0.90;;
4206;SDS011;2117;47.972;7.830;2023-12-20T06:14:12;1.40;;;0.80;;
4206;SDS011;2117;47.972;7.830;2023-12-20T06:16:38;1.60;;;1.10;;
4206;SDS011;2117;47.972;7.830;2023-12-20T06:19:03;1.47;;;0.80;;
4206;SDS011;2117;47.972;7.830;2023-12-20T06:21:29;1.30;;;0.80;;
4206;SDS011;2117;47.972;7.830;2023-12-20T06:23:55;1.20;;;0.80;;
4206;SDS011;2117;47.972;7.830;2023-12-20T06:26:20;1.20;;;0.70;;
4206;SDS011;2117;47.972;7.830;2023-12-20T06:28:46;1.33;;;0.70;;
4206;SDS011;2117;47.972;7.830;2023-12-20T06:31:11;1.30;;;0.80;;
4206;SDS011;2117;47.972;7.830;2023-12-20T06:33:37;1.57;;;0.60;;
4206;SDS011;2117;47.972;7.830;2023-12-20T06:36:05;1.20;;;0.70;;
4206;SDS011;2117;47.972;7.830;2023-12-20T06:38:31;1.10;;;0.70;;
4206;SDS011;2117;47.972;7.830;2023-12-20T06:40:56;2.53;;;1.13;;
4206;SDS011;2117;47.972;7.830;2023-12-20T06:43:23;1.43;;;0.80;;
4206;SDS011;2117;47.972;7.830;2023-12-20T06:45:49;1.23;;;0.63;;
4206;SDS011;2117;47.972;7.830;2023-12-20T06:48:15;1.23;;;0.77;;
4206;SDS011;2117;47.972;7.830;2023-12-20T06:50:41;1.10;;;0.60;;
4206;SDS011;2117;47.972;7.830;2023-12-20T06:53:07;1.43;;;0.90;;
4206;SDS011;2117;47.972;7.830;2023-12-20T06:55:33;1.10;;;0.70;;
4206;SDS011;2117;47.972;7.830;2023-12-20T06:58:01;1.40;;;0.80;;
4206;SDS011;2117;47.972;7.830;2023-12-20T07:00:27;1.30;;;0.90;;
4206;SDS011;2117;47.972;7.830;2023-12-20T07:02:52;1.20;;;0.70;;
4206;SDS011;2117;47.972;7.830;2023-12-20T07:05:18;1.70;;;1.00;;
4206;SDS011;2117;47.972;7.830;2023-12-20T07:07:45;1.90;;;1.10;;
4206;SDS011;2117;47.972;7.830;2023-12-20T07:10:11;1.90;;;1.30;;
4206;SDS011;2117;47.972;7.830;2023-12-20T07:12:37;2.70;;;1.00;;
4206;SDS011;2117;47.972;7.830;2023-12-20T07:15:02;1.70;;;1.20;;
4206;SDS011;2117;47.972;7.830;2023-12-20T07:17:28;1.80;;;1.13;;
4206;SDS011;2117;47.972;7.830;2023-12-20T07:19:54;3.00;;;1.00;;
4206;SDS011;2117;47.972;7.830;2023-12-20T07:22:19;1.90;;;1.30;;
4206;SDS011;2117;47.972;7.830;2023-12-20T07:24:45;1.47;;;0.90;;
4206;SDS011;2117;47.972;7.830;2023-12-20T07:27:11;1.37;;;0.80;;
4206;SDS011;2117;47.972;7.830;2023-12-20T07:29:36;1.77;;;0.90;;
4206;SDS011;2117;47.972;7.830;2023-12-20T07:32:02;2.13;;;0.90;;
4206;SDS011;2117;47.972;7.830;2023-12-20T07:34:28;1.30;;;0.70;;
4206;SDS011;2117;47.972;7.830;2023-12-20T07:36:53;1.70;;;0.90;;
4206;SDS011;2117;47.972;7.830;2023-12-20T07:39:19;1.87;;;0.80;;
4206;SDS011;2117;47.972;7.830;2023-12-20T07:41:44;1.30;;;0.80;;
4206;SDS011;2117;47.972;7.830;2023-12-20T07:44:10;1.40;;;0.80;;
4206;SDS011;2117;47.972;7.830;2023-12-20T07:46:36;2.20;;;1.10;;
4206;SDS011;2117;47.972;7.830;2023-12-20T07:49:01;1.90;;;0.97;;
4206;SDS011;2117;47.972;7.830;2023-12-20T07:51:27;1.70;;;1.20;;
4206;SDS011;2117;47.972;7.830;2023-12-20T07:53:52;2.90;;;1.83;;
4206;SDS011;2117;47.972;7.830;2023-12-20T07:56:18;3.43;;;2.93;;
4206;SDS011;2117;47.972;7.830;2023-12-20T07:58:44;11.77;;;7.97;;
4206;SDS011;2117;47.972;7.830;2023-12-20T08:01:11;18.37;;;15.67;;
4206;SDS011;2117;47.972;7.830;2023-12-20T08:03:37;23.27;;;18.87;;
4206;SDS011;2117;47.972;7.830;2023-12-20T08:06:03;10.37;;;9.10;;
4206;SDS011;2117;47.972;7.830;2023-12-20T08:08:29;10.13;;;8.60;;
4206;SDS011;2117;47.972;7.830;2023-12-20T08:10:54;13.10;;;11.73;;
4206;SDS011;2117;47.972;7.830;2023-12-20T08:13:22;5.10;;;4.10;;
4206;SDS011;2117;47.972;7.830;2023-12-20T08:15:50;9.10;;;8.17;;
4206;SDS011;2117;47.972;7.830;2023-12-20T08:18:16;20.20;;;16.80;;
4206;SDS011;2117;47.972;7.830;2023-12-20T08:20:42;11.00;;;9.47;;
4206;SDS011;2117;47.972;7.830;2023-12-20T08:23:07;30.47;;;24.40;;
4206;SDS011;2117;47.972;7.830;2023-12-20T08:25:36;29.07;;;22.67;;
4206;SDS011;2117;47.972;7.830;2023-12-20T08:28:02;27.07;;;22.23;;
4206;SDS011;2117;47.972;7.830;2023-12-20T08:30:28;4.23;;;3.70;;
4206;SDS011;2117;47.972;7.830;2023-12-20T08:32:54;5.27;;;4.17;;
4206;SDS011;2117;47.972;7.830;2023-12-20T08:35:20;5.50;;;3.43;;
4206;SDS011;2117;47.972;7.830;2023-12-20T08:37:45;5.17;;;2.80;;
4206;SDS011;2117;47.972;7.830;2023-12-20T08:40:11;9.70;;;6.13;;
4206;SDS011;2117;47.972;7.830;2023-12-20T08:42:37;17.17;;;9.60;;
4206;SDS011;2117;47.972;7.830;2023-12-20T08:45:02;16.13;;;8.00;;
4206;SDS011;2117;47.972;7.830;2023-12-20T08:47:29;9.53;;;6.43;;
4206;SDS011;2117;47.972;7.830;2023-12-20T08:49:54;11.53;;;5.07;;
4206;SDS011;2117;47.972;7.830;2023-12-20T08:52:23;7.90;;;4.63;;
4206;SDS011;2117;47.972;7.830;2023-12-20T08:54:49;8.63;;;4.23;;
4206;SDS011;2117;47.972;7.830;2023-12-20T08:57:17;7.60;;;3.00;;
4206;SDS011;2117;47.972;7.830;2023-12-20T08:59:44;4.90;;;2.83;;
4206;SDS011;2117;47.972;7.830;2023-12-20T09:02:09;5.50;;;3.47;;
4206;SDS011;2117;47.972;7.830;2023-12-20T09:04:35;23.60;;;16.17;;
4206;SDS011;2117;47.972;7.830;2023-12-20T09:07:01;20.13;;;15.67;;
4206;SDS011;2117;47.972;7.830;2023-12-20T09:09:26;11.63;;;7.50;;
4206;SDS011;2117;47.972;7.830;2023-12-20T09:11:52;8.53;;;7.33;;
4206;SDS011;2117;47.972;7.830;2023-12-20T09:14:17;3.23;;;2.57;;
4206;SDS011;2117;47.972;7.830;2023-12-20T09:16:43;2.47;;;2.17;;
4206;SDS011;2117;47.972;7.830;2023-12-20T09:19:08;2.57;;;1.73;;
4206;SDS011;2117;47.972;7.830;2023-12-20T09:21:34;3.07;;;2.50;;
4206;SDS011;2117;47.972;7.830;2023-12-20T09:23:59;2.90;;;1.83;;
4206;SDS011;2117;47.972;7.830;2023-12-20T09:26:25;2.07;;;1.63;;
4206;SDS011;2117;47.972;7.830;2023-12-20T09:28:51;2.83;;;1.83;;
4206;SDS011;2117;47.972;7.830;2023-12-20T09:31:23;2.97;;;2.30;;
4206;SDS011;2117;47.972;7.830;2023-12-20T09:33:50;24.80;;;20.73;;
4206;SDS011;2117;47.972;7.830;2023-12-20T09:36:15;5.57;;;4.07;;
4206;SDS011;2117;47.972;7.830;2023-12-20T09:38:41;3.23;;;2.10;;
4206;SDS011;2117;47.972;7.830;2023-12-20T09:41:07;3.67;;;1.90;;
4206;SDS011;2117;47.972;7.830;2023-12-20T09:43:32;2.50;;;1.67;;
4206;SDS011;2117;47.972;7.830;2023-12-20T09:46:04;5.20;;;1.93;;
4206;SDS011;2117;47.972;7.830;2023-12-20T09:48:32;4.60;;;2.20;;
4206;SDS011;2117;47.972;7.830;2023-12-20T09:50:58;2.43;;;2.07;;
4206;SDS011;2117;47.972;7.830;2023-12-20T09:53:24;3.63;;;2.53;;
4206;SDS011;2117;47.972;7.830;2023-12-20T09:55:54;5.43;;;4.10;;
4206;SDS011;2117;47.972;7.830;2023-12-20T09:58:26;6.07;;;4.13;;
4206;SDS011;2117;47.972;7.830;2023-12-20T10:00:52;7.10;;;3.53;;
4206;SDS011;2117;47.972;7.830;2023-12-20T10:03:19;6.23;;;3.60;;
4206;SDS011;2117;47.972;7.830;2023-12-20T10:05:49;7.30;;;3.23;;
4206;SDS011;2117;47.972;7.830;2023-12-20T10:08:20;3.00;;;2.40;;
4206;SDS011;2117;47.972;7.830;2023-12-20T10:10:47;6.17;;;3.93;;
4206;SDS011;2117;47.972;7.830;2023-12-20T10:13:13;5.33;;;3.53;;
4206;SDS011;2117;47.972;7.830;2023-12-20T10:15:38;11.13;;;7.87;;
4206;SDS011;2117;47.972;7.830;2023-12-20T10:18:04;46.80;;;31.90;;
4206;SDS011;2117;47.972;7.830;2023-12-20T10:20:30;20.30;;;12.30;;
4206;SDS011;2117;47.972;7.830;2023-12-20T10:22:57;9.37;;;6.80;;
4206;SDS011;2117;47.972;7.830;2023-12-20T10:25:23;13.00;;;9.30;;
4206;SDS011;2117;47.972;7.830;2023-12-20T10:27:50;8.07;;;4.00;;
4206;SDS011;2117;47.972;7.830;2023-12-20T10:30:33;3.90;;;2.90;;
4206;SDS011;2117;47.972;7.830;2023-12-20T10:32:59;25.10;;;17.00;;
4206;SDS011;2117;47.972;7.830;2023-12-20T10:35:24;8.50;;;6.27;;
4206;SDS011;2117;47.972;7.830;2023-12-20T10:37:51;31.70;;;19.27;;
4206;SDS011;2117;47.972;7.830;2023-12-20T10:40:21;14.43;;;10.13;;
4206;SDS011;2117;47.972;7.830;2023-12-20T10:42:47;5.97;;;3.97;;
4206;SDS011;2117;47.972;7.830;2023-12-20T10:45:15;8.07;;;6.53;;
4206;SDS011;2117;47.972;7.830;2023-12-20T10:47:42;9.63;;;3.30;;
4206;SDS011;2117;47.972;7.830;2023-12-20T10:50:11;4.57;;;3.33;;
4206;SDS011;2117;47.972;7.830;2023-12-20T10:52:37;6.00;;;3.30;;
4206;SDS011;2117;47.972;7.830;2023-12-20T10:55:03;2.83;;;2.33;;
4206;SDS011;2117;47.972;7.830;2023-12-20T10:57:30;4.17;;;2.87;;
4206;SDS011;2117;47.972;7.830;2023-12-20T10:59:55;6.73;;;3.27;;
4206;SDS011;2117;47.972;7.830;2023-12-20T11:02:29;3.93;;;2.67;;
4206;SDS011;2117;47.972;7.830;2023-12-20T11:05:10;3.10;;;2.40;;
4206;SDS011;2117;47.972;7.830;2023-12-20T11:08:12;3.90;;;2.70;;
4206;SDS011;2117;47.972;7.830;2023-12-20T11:13:17;3.70;;;2.00;;
4206;SDS011;2117;47.972;7.830;2023-12-20T11:15:48;5.60;;;2.67;;
4206;SDS011;2117;47.972;7.830;2023-12-20T11:18:14;3.83;;;2.60;;
4206;SDS011;2117;47.972;7.830;2023-12-20T11:20:40;3.23;;;2.33;;
4206;SDS011;2117;47.972;7.830;2023-12-20T11:23:09;5.53;;;2.87;;
4206;SDS011;2117;47.972;7.830;2023-12-20T11:25:54;9.60;;;2.77;;
4206;SDS011;2117;47.972;7.830;2023-12-20T11:28:24;7.57;;;2.57;;
4206;SDS011;2117;47.972;7.830;2023-12-20T11:30:52;4.47;;;2.20;;
4206;SDS011;2117;47.972;7.830;2023-12-20T11:33:22;5.53;;;2.70;;
4206;SDS011;2117;47.972;7.830;2023-12-20T11:35:49;4.20;;;2.40;;
4206;SDS011;2117;47.972;7.830;2023-12-20T11:38:15;16.33;;;2.90;;
4206;SDS011;2117;47.972;7.830;2023-12-20T11:40:41;7.17;;;2.53;;
4206;SDS011;2117;47.972;7.830;2023-12-20T11:43:08;6.10;;;2.40;;
4206;SDS011;2117;47.972;7.830;2023-12-20T11:45:34;5.00;;;2.40;;
4206;SDS011;2117;47.972;7.830;2023-12-20T11:48:00;4.47;;;2.23;;
4206;SDS011;2117;47.972;7.830;2023-12-20T11:50:27;5.60;;;2.33;;
4206;SDS011;2117;47.972;7.830;2023-12-20T11:52:54;3.97;;;1.90;;
4206;SDS011;2117;47.972;7.830;2023-12-20T11:55:21;4.67;;;2.30;;
4206;SDS011;2117;47.972;7.830;2023-12-20T11:57:47;5.97;;;2.53;;
4206;SDS011;2117;47.972;7.830;2023-12-20T12:00:13;6.13;;;3.03;;
4206;SDS011;2117;47.972;7.830;2023-12-20T12:02:39;9.30;;;2.37;;
4206;SDS011;2117;47.972;7.830;2023-12-20T12:05:05;4.30;;;1.90;;
4206;SDS011;2117;47.972;7.830;2023-12-20T12:07:32;5.30;;;2.50;;
4206;SDS011;2117;47.972;7.830;2023-12-20T12:09:58;9.43;;;4.40;;
4206;SDS011;2117;47.972;7.830;2023-12-20T12:12:24;5.50;;;2.00;;
4206;SDS011;2117;47.972;7.830;2023-12-20T12:14:52;4.23;;;2.20;;
4206;SDS011;2117;47.972;7.830;2023-12-20T12:17:18;9.93;;;2.37;;
4206;SDS011;2117;47.972;7.830;2023-12-20T12:19:43;11.10;;;2.30;;
4206;SDS011;2117;47.972;7.830;2023-12-20T12:22:13;7.80;;;2.17;;
4206;SDS011;2117;47.972;7.830;2023-12-20T12:24:40;6.83;;;3.00;;
4206;SDS011;2117;47.972;7.830;2023-12-20T12:27:09;9.47;;;2.73;;
4206;SDS011;2117;47.972;7.830;2023-12-20T12:29:35;4.53;;;2.33;;
4206;SDS011;2117;47.972;7.830;2023-12-20T12:32:05;13.60;;;6.40;;
4206;SDS011;2117;47.972;7.830;2023-12-20T12:34:34;9.60;;;3.80;;
4206;SDS011;2117;47.972;7.830;2023-12-20T12:37:01;12.57;;;3.90;;
4206;SDS011;2117;47.972;7.830;2023-12-20T12:39:29;12.83;;;6.43;;
4206;SDS011;2117;47.972;7.830;2023-12-20T12:41:55;6.97;;;2.90;;
4206;SDS011;2117;47.972;7.830;2023-12-20T12:44:22;21.07;;;10.37;;
4206;SDS011;2117;47.972;7.830;2023-12-20T12:46:49;21.00;;;12.23;;
4206;SDS011;2117;47.972;7.830;2023-12-20T12:49:16;10.07;;;3.53;;
4206;SDS011;2117;47.972;7.830;2023-12-20T12:51:42;7.10;;;3.00;;
4206;SDS011;2117;47.972;7.830;2023-12-20T12:54:08;12.30;;;7.03;;
4206;SDS011;2117;47.972;7.830;2023-12-20T12:56:34;17.97;;;7.20;;
4206;SDS011;2117;47.972;7.830;2023-12-20T12:59:01;8.30;;;4.03;;
4206;SDS011;2117;47.972;7.830;2023-12-20T13:01:27;10.73;;;3.43;;
4206;SDS011;2117;47.972;7.830;2023-12-20T13:03:53;4.90;;;2.17;;
4206;SDS011;2117;47.972;7.830;2023-12-20T13:06:19;7.13;;;2.20;;
4206;SDS011;2117;47.972;7.830;2023-12-20T13:08:45;9.00;;;2.30;;
4206;SDS011;2117;47.972;7.830;2023-12-20T13:11:11;3.93;;;2.17;;
4206;SDS011;2117;47.972;7.830;2023-12-20T13:13:36;5.50;;;1.90;;
4206;SDS011;2117;47.972;7.830;2023-12-20T13:16:02;4.93;;;1.60;;
4206;SDS011;2117;47.972;7.830;2023-12-20T13:18:28;3.77;;;1.70;;
4206;SDS011;2117;47.972;7.830;2023-12-20T13:20:53;7.90;;;2.17;;
4206;SDS011;2117;47.972;7.830;2023-12-20T13:23:19;4.43;;;1.40;;
4206;SDS011;2117;47.972;7.830;2023-12-20T13:25:44;7.20;;;3.17;;
4206;SDS011;2117;47.972;7.830;2023-12-20T13:28:11;10.77;;;3.73;;
4206;SDS011;2117;47.972;7.830;2023-12-20T13:30:37;8.53;;;5.70;;
4206;SDS011;2117;47.972;7.830;2023-12-20T13:33:03;4.33;;;1.90;;
4206;SDS011;2117;47.972;7.830;2023-12-20T13:35:30;12.97;;;5.10;;
4206;SDS011;2117;47.972;7.830;2023-12-20T13:37:57;8.80;;;4.37;;
4206;SDS011;2117;47.972;7.830;2023-12-20T13:40:23;10.13;;;4.83;;
4206;SDS011;2117;47.972;7.830;2023-12-20T13:42:48;12.07;;;3.07;;
4206;SDS011;2117;47.972;7.830;2023-12-20T13:45:14;8.50;;;3.60;;
4206;SDS011;2117;47.972;7.830;2023-12-20T13:47:39;6.20;;;3.97;;
4206;SDS011;2117;47.972;7.830;2023-12-20T13:50:05;18.57;;;10.50;;
4206;SDS011;2117;47.972;7.830;2023-12-20T13:52:31;10.73;;;5.93;;
4206;SDS011;2117;47.972;7.830;2023-12-20T13:54:56;12.23;;;6.27;;
4206;SDS011;2117;47.972;7.830;2023-12-20T13:57:22;9.60;;;6.50;;
4206;SDS011;2117;47.972;7.830;2023-12-20T13:59:47;13.93;;;9.03;;
4206;SDS011;2117;47.972;7.830;2023-12-20T14:02:13;19.90;;;14.87;;
4206;SDS011;2117;47.972;7.830;2023-12-20T14:04:39;14.73;;;9.90;;
4206;SDS011;2117;47.972;7.830;2023-12-20T14:07:05;7.93;;;4.77;;
4206;SDS011;2117;47.972;7.830;2023-12-20T14:09:32;5.90;;;2.87;;
4206;SDS011;2117;47.972;7.830;2023-12-20T14:11:58;6.97;;;2.67;;
4206;SDS011;2117;47.972;7.830;2023-12-20T14:14:24;7.53;;;3.47;;
4206;SDS011;2117;47.972;7.830;2023-12-20T14:16:49;4.30;;;2.67;;
4206;SDS011;2117;47.972;7.830;2023-12-20T14:19:16;7.43;;;2.80;;
4206;SDS011;2117;47.972;7.830;2023-12-20T14:21:41;5.47;;;3.40;;
4206;SDS011;2117;47.972;7.830;2023-12-20T14:24:07;3.83;;;2.00;;
4206;SDS011;2117;47.972;7.830;2023-12-20T14:26:32;6.67;;;2.37;;
4206;SDS011;2117;47.972;7.830;2023-12-20T14:28:58;7.83;;;3.43;;
4206;SDS011;2117;47.972;7.830;2023-12-20T14:31:23;9.30;;;4.20;;
4206;SDS011;2117;47.972;7.830;2023-12-20T14:33:50;7.20;;;3.73;;
4206;SDS011;2117;47.972;7.830;2023-12-20T14:36:18;8.37;;;2.50;;
4206;SDS011;2117;47.972;7.830;2023-12-20T14:38:45;8.80;;;2.57;;
4206;SDS011;2117;47.972;7.830;2023-12-20T14:41:12;5.07;;;2.40;;
4206;SDS011;2117;47.972;7.830;2023-12-20T14:43:37;4.90;;;2.77;;
4206;SDS011;2117;47.972;7.830;2023-12-20T14:46:03;9.57;;;3.00;;
4206;SDS011;2117;47.972;7.830;2023-12-20T14:48:30;6.17;;;2.40;;
4206;SDS011;2117;47.972;7.830;2023-12-20T14:50:57;13.90;;;2.20;;
4206;SDS011;2117;47.972;7.830;2023-12-20T14:53:24;6.23;;;2.40;;
4206;SDS011;2117;47.972;7.830;2023-12-20T14:55:50;7.10;;;2.60;;
4206;SDS011;2117;47.972;7.830;2023-12-20T14:58:16;14.50;;;4.83;;
4206;SDS011;2117;47.972;7.830;2023-12-20T15:00:42;7.33;;;3.40;;
4206;SDS011;2117;47.972;7.830;2023-12-20T15:03:08;15.93;;;8.03;;
4206;SDS011;2117;47.972;7.830;2023-12-20T15:05:34;9.27;;;4.37;;
4206;SDS011;2117;47.972;7.830;2023-12-20T15:08:00;28.60;;;14.53;;
4206;SDS011;2117;47.972;7.830;2023-12-20T15:10:26;16.73;;;8.23;;